Time;durP1;ratioP1;P1;durP2;ratioP2;P2;SDS_P1;SDS_P2;PMS_P1;PMS_P2;Temp;Humidity;BMP_temperature;BMP_pressure;BME280_temperature;BME280_humidity;BME280_pressure;Samples;Min_cycle;Max_cycle;Signal;HPM_P1;HPM_P2
2022/06/11 06:42:18;;;;;;;7.28;2.40;;;20.80;99.90;;;;;;5131794;27;20549;-75
2022/06/11 06:44:44;;;;;;;2.65;2.17;;;19.10;99.90;;;;;;5131685;28;20170;-73
2022/06/11 06:47:09;;;;;;;2.78;2.58;;;19.10;99.90;;;;;;5131652;28;20197;-73
2022/06/11 06:49:35;;;;;;;5.03;2.65;;;19.10;99.90;;;;;;5131699;28;20195;-72
2022/06/11 06:52:01;;;;;;;4.25;2.70;;;19.20;99.90;;;;;;5131630;28;20253;-73
2022/06/11 06:54:26;;;;;;;5.90;2.50;;;19.20;99.90;;;;;;5131637;28;20170;-74
2022/06/11 06:56:52;;;;;;;3.90;2.47;;;19.20;99.90;;;;;;5131610;28;20540;-73
2022/06/11 06:59:17;;;;;;;4.40;3.13;;;19.30;99.90;;;;;;5131502;28;20162;-72
2022/06/11 07:01:44;;;;;;;2.83;2.63;;;19.30;99.90;;;;;;5130128;28;20201;-73
2022/06/11 07:04:11;;;;;;;6.57;2.30;;;19.30;99.90;;;;;;5131447;28;20173;-73
2022/06/11 07:06:37;;;;;;;3.38;2.40;;;19.40;99.90;;;;;;5131379;28;20170;-73
2022/06/11 07:09:03;;;;;;;4.30;2.40;;;19.40;99.90;;;;;;5131378;28;20158;-73
2022/06/11 07:11:29;;;;;;;4.15;2.22;;;19.40;99.90;;;;;;5131294;28;20197;-73
2022/06/11 07:13:55;;;;;;;2.90;2.70;;;19.30;99.90;;;;;;5131249;28;20619;-73
2022/06/11 07:16:27;;;;;;;3.42;2.72;;;19.40;99.90;;;;;;5131182;28;20501;-73
2022/06/11 07:18:57;;;;;;;2.25;2.05;;;19.40;99.90;;;;;;5131117;28;20166;-72
2022/06/11 07:21:30;;;;;;;2.72;2.40;;;19.40;99.90;;;;;;5112729;28;20654;-72
2022/06/11 07:24:01;;;;;;;4.43;2.70;;;19.50;99.90;;;;;;5131091;28;20166;-73
2022/06/11 07:26:30;;;;;;;2.45;2.35;;;19.50;99.90;;;;;;5130952;28;20244;-72
2022/06/11 07:29:01;;;;;;;2.70;2.55;;;19.60;99.90;;;;;;5130961;28;20662;-72
2022/06/11 07:31:30;;;;;;;6.13;1.98;;;19.50;99.90;;;;;;5112442;28;20269;-73
2022/06/11 07:33:56;;;;;;;2.00;1.90;;;19.50;99.90;;;;;;5130770;28;20276;-73
2022/06/11 07:36:21;;;;;;;2.40;1.95;;;19.50;99.90;;;;;;5130819;28;20253;-72
2022/06/11 07:38:47;;;;;;;2.63;2.40;;;19.50;99.90;;;;;;5130576;28;20174;-72
2022/06/11 07:41:13;;;;;;;8.82;2.30;;;19.60;99.90;;;;;;5130418;28;20310;-72
2022/06/11 07:43:39;;;;;;;2.92;2.35;;;19.60;99.90;;;;;;5130543;28;20185;-71
2022/06/11 07:46:05;;;;;;;2.60;2.10;;;19.60;99.90;;;;;;5130514;28;20166;-72
2022/06/11 07:48:31;;;;;;;2.35;2.25;;;19.50;99.90;;;;;;5130414;28;20230;-71
2022/06/11 07:50:56;;;;;;;2.88;2.40;;;19.60;99.90;;;;;;5130554;28;20190;-72
2022/06/11 07:53:23;;;;;;;3.53;2.65;;;19.70;99.90;;;;;;5118418;28;20167;-72
2022/06/11 07:55:52;;;;;;;4.07;3.78;;;19.70;99.90;;;;;;5116638;28;20170;-72
2022/06/11 07:58:20;;;;;;;2.97;2.78;;;19.80;99.90;;;;;;5115407;28;20215;-72
2022/06/11 08:00:48;;;;;;;2.65;2.45;;;19.80;99.90;;;;;;5115186;28;20251;-72
2022/06/11 08:03:15;;;;;;;2.10;2.00;;;19.90;99.90;;;;;;5116547;28;20197;-73
2022/06/11 08:05:41;;;;;;;2.95;2.80;;;20.00;99.90;;;;;;5116561;28;20606;-73
2022/06/11 08:08:08;;;;;;;3.92;2.72;;;20.00;99.90;;;;;;5116397;28;20194;-72
2022/06/11 08:10:36;;;;;;;3.55;2.80;;;20.00;99.90;;;;;;5115190;28;20174;-71
2022/06/11 08:13:02;;;;;;;2.42;2.30;;;20.10;99.90;;;;;;5116358;28;20171;-72
2022/06/11 08:15:29;;;;;;;2.97;2.78;;;20.10;99.90;;;;;;5116611;28;20593;-73
2022/06/11 08:17:55;;;;;;;3.50;2.67;;;20.20;99.90;;;;;;5114990;28;20180;-73
2022/06/11 08:20:24;;;;;;;3.20;2.70;;;20.30;99.90;;;;;;5116038;28;20197;-73
2022/06/11 08:22:50;;;;;;;3.33;2.90;;;20.20;99.90;;;;;;5116138;28;20231;-74
2022/06/11 08:25:17;;;;;;;4.50;2.65;;;20.20;99.90;;;;;;5116116;28;20586;-74
2022/06/11 08:27:43;;;;;;;8.32;2.60;;;20.20;99.90;;;;;;5116010;28;20220;-74
2022/06/11 08:30:11;;;;;;;3.88;2.42;;;20.20;99.90;;;;;;5115959;28;20246;-74
2022/06/11 08:32:36;;;;;;;7.80;3.25;;;20.20;99.90;;;;;;5115842;28;20191;-73
2022/06/11 08:35:02;;;;;;;2.70;2.60;;;20.10;99.90;;;;;;5115804;28;20181;-74
2022/06/11 08:37:27;;;;;;;5.25;2.72;;;20.00;99.90;;;;;;5116118;28;20173;-74
2022/06/11 08:39:53;;;;;;;6.97;3.08;;;19.80;99.90;;;;;;5114341;28;20202;-74
2022/06/11 08:42:36;;;;;;;3.25;3.00;;;19.90;99.90;;;;;;5115600;28;20298;-73
2022/06/11 08:45:20;;;;;;;4.18;2.47;;;19.80;99.90;;;;;;5115673;28;20508;-73
2022/06/11 08:47:54;;;;;;;4.07;3.67;;;19.90;99.90;;;;;;5115624;28;20245;-72
2022/06/11 08:50:26;;;;;;;4.07;3.38;;;20.10;99.90;;;;;;5115604;28;20197;-73
2022/06/11 08:52:52;;;;;;;4.05;3.08;;;20.10;99.90;;;;;;5115575;28;20163;-73
2022/06/11 08:55:21;;;;;;;3.58;3.28;;;20.20;99.90;;;;;;5115456;28;20641;-74
2022/06/11 08:58:11;;;;;;;6.78;3.00;;;20.40;99.90;;;;;;5114219;28;20163;-73
2022/06/11 09:00:52;;;;;;;3.28;2.80;;;20.50;99.90;;;;;;5115405;28;20561;-73
2022/06/11 09:03:29;;;;;;;4.63;3.22;;;20.60;99.90;;;;;;5114996;28;20527;-74
2022/06/11 09:06:31;;;;;;;4.75;3.10;;;20.70;99.90;;;;;;5114998;28;20188;-74
2022/06/11 09:09:02;;;;;;;2.97;2.78;;;20.80;99.90;;;;;;5115214;28;20654;-74
2022/06/11 09:11:49;;;;;;;3.55;3.25;;;20.90;99.90;;;;;;5115101;28;20212;-73
2022/06/11 09:14:52;;;;;;;2.97;2.72;;;21.00;99.90;;;;;;5115014;28;20174;-73
2022/06/11 09:17:48;;;;;;;3.13;2.92;;;21.10;99.90;;;;;;5115074;28;20177;-74
2022/06/11 09:20:25;;;;;;;5.05;3.47;;;21.30;99.90;;;;;;5114985;28;20166;-73
2022/06/11 09:23:21;;;;;;;6.20;3.22;;;21.30;99.90;;;;;;5114942;28;20623;-73
2022/06/11 09:26:01;;;;;;;3.03;2.83;;;21.30;99.90;;;;;;5114910;28;20533;-74
2022/06/11 09:28:27;;;;;;;3.58;2.50;;;21.40;99.90;;;;;;5114916;28;20245;-73
2022/06/11 09:31:12;;;;;;;3.83;3.47;;;21.50;99.90;;;;;;5114871;28;20583;-73
2022/06/11 09:33:50;;;;;;;3.63;2.95;;;21.60;99.90;;;;;;5072580;28;20194;-74
2022/06/11 09:36:32;;;;;;;6.13;3.38;;;21.50;99.90;;;;;;5114832;28;20639;-73
2022/06/11 09:39:21;;;;;;;5.63;4.07;;;21.30;99.90;;;;;;5114700;28;20200;-74
2022/06/11 09:42:00;;;;;;;3.53;3.25;;;20.80;99.90;;;;;;5112868;28;20255;-74
2022/06/11 09:44:47;;;;;;;11.18;3.83;;;20.50;99.90;;;;;;5113368;28;20188;-73
2022/06/11 09:47:43;;;;;;;3.10;2.80;;;20.50;99.90;;;;;;5114537;28;20167;-74
2022/06/11 09:50:33;;;;;;;5.72;3.42;;;20.40;99.90;;;;;;5114433;28;20166;-74
2022/06/11 09:53:21;;;;;;;4.38;3.30;;;20.50;99.90;;;;;;5114369;28;20162;-73
2022/06/11 09:55:54;;;;;;;4.45;3.85;;;20.60;99.90;;;;;;5114300;28;20166;-73
2022/06/11 09:58:44;;;;;;;3.25;2.90;;;20.70;99.90;;;;;;5114264;28;20159;-73
2022/06/11 10:01:15;;;;;;;5.80;2.90;;;20.70;99.90;;;;;;5114082;28;20206;-74
2022/06/11 10:03:53;;;;;;;6.13;2.85;;;20.70;99.90;;;;;;5112960;28;20714;-73
2022/06/11 10:06:24;;;;;;;3.63;3.05;;;20.60;99.90;;;;;;5114244;28;20159;-73
2022/06/11 10:08:57;;;;;;;3.20;2.97;;;20.50;99.90;;;;;;5114116;28;20166;-74
2022/06/11 10:11:31;;;;;;;3.15;2.85;;;20.60;99.90;;;;;;5114155;28;20635;-73
2022/06/11 10:16:56;;;;;;;5.60;3.65;;;20.60;99.90;;;;;;5113923;28;20177;-74
2022/06/11 10:19:25;;;;;;;4.00;3.75;;;20.70;99.90;;;;;;5113968;28;20532;-74
2022/06/11 10:22:16;;;;;;;5.35;4.00;;;20.60;99.90;;;;;;5113901;28;20585;-73
2022/06/11 10:24:51;;;;;;;3.25;2.97;;;20.60;99.90;;;;;;5114038;28;20187;-74
2022/06/11 10:27:18;;;;;;;8.10;3.90;;;20.60;99.90;;;;;;5113938;28;20155;-74
2022/06/11 10:29:48;;;;;;;3.30;3.17;;;20.70;99.90;;;;;;5113847;28;20162;-73
2022/06/11 10:32:22;;;;;;;3.92;3.60;;;20.80;99.90;;;;;;5113797;28;20646;-73
2022/06/11 10:35:18;;;;;;;4.80;3.15;;;20.80;99.90;;;;;;5113885;28;20166;-73
2022/06/11 10:38:17;;;;;;;3.58;3.35;;;20.90;99.90;;;;;;5110788;28;20189;-73
2022/06/11 10:40:47;;;;;;;3.28;2.97;;;20.80;99.90;;;;;;5113505;28;20214;-73
2022/06/11 10:43:16;;;;;;;3.70;2.97;;;20.90;99.90;;;;;;5113872;28;20171;-73
2022/06/11 10:45:43;;;;;;;3.05;2.85;;;20.80;99.90;;;;;;5113804;28;20556;-73
2022/06/11 10:48:32;;;;;;;3.05;2.90;;;21.00;99.90;;;;;;5113713;28;20166;-74
2022/06/11 10:50:59;;;;;;;3.58;3.08;;;21.10;99.90;;;;;;5113774;28;20227;-73
2022/06/11 10:53:37;;;;;;;3.92;2.80;;;21.20;99.90;;;;;;5112410;28;20227;-74
2022/06/11 10:56:18;;;;;;;4.00;2.80;;;21.40;99.90;;;;;;5113705;28;20167;-74
2022/06/11 10:58:58;;;;;;;5.88;2.80;;;21.60;99.90;;;;;;5113599;28;20627;-74
2022/06/11 11:01:26;;;;;;;2.53;2.40;;;21.70;99.90;;;;;;5113439;28;20666;-74
2022/06/11 11:04:14;;;;;;;2.97;2.38;;;21.80;99.90;;;;;;5113506;28;20243;-73
2022/06/11 11:06:41;;;;;;;2.20;2.10;;;21.70;99.90;;;;;;5113574;28;20197;-74
2022/06/11 11:09:21;;;;;;;2.67;2.20;;;21.60;99.90;;;;;;5113511;28;20623;-73
2022/06/11 11:11:52;;;;;;;3.58;2.28;;;21.50;99.90;;;;;;5112257;28;20213;-74
2022/06/11 11:14:31;;;;;;;3.25;2.10;;;21.60;99.90;;;;;;5113498;28;20194;-73
2022/06/11 11:17:03;;;;;;;2.75;2.22;;;21.80;99.90;;;;;;5113482;28;20235;-73
2022/06/11 11:19:32;;;;;;;2.80;2.60;;;22.00;99.90;;;;;;5112143;28;20261;-74
2022/06/11 11:22:04;;;;;;;3.63;2.17;;;22.10;99.90;;;;;;5113336;28;20190;-74
2022/06/11 11:24:36;;;;;;;4.45;2.55;;;22.10;99.90;;;;;;5113465;28;20167;-74
2022/06/11 11:27:04;;;;;;;4.97;2.10;;;22.00;99.90;;;;;;5113806;28;20167;-73
2022/06/11 11:29:36;;;;;;;1.88;1.77;;;22.10;99.90;;;;;;5117251;28;20227;-73
2022/06/11 11:32:06;;;;;;;2.47;2.22;;;22.20;99.90;;;;;;5117007;28;20181;-74
2022/06/11 11:34:41;;;;;;;1.98;1.88;;;22.40;99.90;;;;;;5117156;28;20174;-73
2022/06/11 11:37:13;;;;;;;4.88;2.22;;;22.70;99.90;;;;;;5117132;28;20253;-73
2022/06/11 11:39:47;;;;;;;1.90;1.80;;;23.00;99.90;;;;;;5117076;28;20158;-74
2022/06/11 11:42:18;;;;;;;4.35;2.08;;;23.00;99.90;;;;;;5116792;28;20552;-74
2022/06/11 11:44:49;;;;;;;2.55;1.90;;;22.90;99.90;;;;;;5116882;28;20577;-73
2022/06/11 11:47:24;;;;;;;5.35;2.20;;;22.80;99.90;;;;;;5117015;28;20188;-74
2022/06/11 11:49:58;;;;;;;5.88;2.35;;;22.60;99.90;;;;;;5116834;28;20519;-73
2022/06/11 11:52:26;;;;;;;2.95;2.10;;;22.50;99.90;;;;;;5116804;28;20166;-74
2022/06/11 11:55:08;;;;;;;3.22;2.40;;;22.40;99.90;;;;;;5116713;28;20270;-74
2022/06/11 11:57:34;;;;;;;2.88;2.70;;;22.40;99.90;;;;;;5115367;28;20171;-73
2022/06/11 12:00:01;;;;;;;5.70;2.97;;;22.20;99.90;;;;;;5116656;28;20254;-73
2022/06/11 12:02:43;;;;;;;3.83;2.85;;;22.20;99.90;;;;;;5116549;28;20255;-74
2022/06/11 12:05:11;;;;;;;3.67;2.60;;;22.20;99.90;;;;;;5116447;28;20166;-74
2022/06/11 12:07:41;;;;;;;3.05;2.85;;;22.20;99.90;;;;;;5116311;28;20198;-74
2022/06/11 12:10:36;;;;;;;3.00;2.85;;;22.20;99.90;;;;;;5116206;28;20162;-73
2022/06/11 12:13:02;;;;;;;4.13;3.00;;;22.10;99.90;;;;;;5116321;28;20166;-74
2022/06/11 12:15:32;;;;;;;4.10;2.88;;;22.30;99.90;;;;;;5116093;28;20254;-73
2022/06/11 12:18:09;;;;;;;5.75;3.67;;;22.40;99.90;;;;;;5114861;28;20224;-73
2022/06/11 12:20:44;;;;;;;8.43;3.05;;;22.50;99.90;;;;;;5115962;28;20543;-73
2022/06/11 12:23:31;;;;;;;3.72;2.80;;;22.80;99.90;;;;;;5116080;28;20200;-73
2022/06/11 12:26:02;;;;;;;6.25;2.88;;;23.10;99.90;;;;;;5115939;28;20178;-73
2022/06/11 12:28:40;;;;;;;3.13;2.92;;;23.30;99.90;;;;;;5116373;28;20592;-74
2022/06/11 12:31:08;;;;;;;3.40;3.20;;;23.40;99.90;;;;;;5115830;28;20622;-73
2022/06/11 12:33:43;;;;;;;3.60;3.40;;;23.50;99.90;;;;;;5114425;28;20201;-73
2022/06/11 12:36:28;;;;;;;3.75;3.33;;;23.60;99.90;;;;;;5115812;28;20199;-73
2022/06/11 12:39:14;;;;;;;3.13;2.92;;;23.50;99.90;;;;;;5115724;28;20213;-73
2022/06/11 12:42:14;;;;;;;11.52;3.42;;;23.60;99.90;;;;;;5114211;28;20232;-73
2022/06/11 12:44:50;;;;;;;3.75;3.45;;;23.70;99.90;;;;;;5060343;28;20212;-73
2022/06/11 12:47:46;;;;;;;3.25;3.05;;;23.60;99.90;;;;;;5115707;28;20580;-73
2022/06/11 12:50:36;;;;;;;3.60;3.30;;;23.40;99.90;;;;;;5115815;28;20163;-73
2022/06/11 12:53:11;;;;;;;3.53;3.17;;;23.20;99.90;;;;;;5115608;28;20182;-73
2022/06/11 12:55:49;;;;;;;5.38;3.30;;;23.20;99.90;;;;;;5115300;28;20162;-74
2022/06/11 12:58:17;;;;;;;3.17;2.97;;;23.10;99.90;;;;;;5115416;28;20167;-73
2022/06/11 13:01:01;;;;;;;3.30;3.00;;;23.20;99.90;;;;;;5115341;28;20190;-74
2022/06/11 13:03:53;;;;;;;4.57;3.40;;;22.90;99.90;;;;;;5115391;28;20166;-74
2022/06/11 13:06:43;;;;;;;5.00;3.58;;;22.80;99.90;;;;;;5113922;28;20320;-74
2022/06/11 13:09:25;;;;;;;3.58;3.20;;;22.70;99.90;;;;;;5115189;28;20170;-74
2022/06/11 13:12:02;;;;;;;6.38;3.45;;;23.10;99.90;;;;;;5115027;28;20264;-74
2022/06/11 13:14:46;;;;;;;3.70;2.85;;;23.60;99.90;;;;;;5115136;28;20218;-74
2022/06/11 13:17:29;;;;;;;6.85;3.45;;;23.80;99.90;;;;;;5115100;28;20170;-74
2022/06/11 13:20:41;;;;;;;2.95;2.75;;;23.80;99.90;;;;;;5115033;28;20680;-74
2022/06/11 13:23:21;;;;;;;2.83;2.60;;;23.70;99.90;;;;;;5112518;28;20210;-74
2022/06/11 13:25:53;;;;;;;2.80;2.60;;;23.50;99.90;;;;;;5114909;28;20224;-74
2022/06/11 13:28:32;;;;;;;5.47;2.90;;;23.50;99.90;;;;;;5114867;28;20166;-74
2022/06/11 13:31:09;;;;;;;3.00;2.80;;;23.50;99.90;;;;;;5114785;28;20205;-74
2022/06/11 13:33:41;;;;;;;3.28;2.50;;;23.70;99.90;;;;;;5114689;28;20670;-73
2022/06/11 13:36:20;;;;;;;3.05;2.85;;;23.90;99.90;;;;;;5114736;28;20246;-73
2022/06/11 13:39:16;;;;;;;2.30;2.10;;;24.30;99.90;;;;;;5114695;28;20160;-73
2022/06/11 13:42:21;;;;;;;6.28;2.55;;;24.80;99.90;;;;;;5114462;28;20291;-73
2022/06/11 13:45:08;;;;;;;2.58;2.38;;;25.00;99.90;;;;;;5113315;28;20530;-74
2022/06/11 13:47:55;;;;;;;2.45;2.35;;;24.80;99.90;;;;;;5113102;28;20166;-74
2022/06/11 13:50:33;;;;;;;3.03;2.60;;;24.60;99.90;;;;;;5112792;28;20177;-73
2022/06/11 13:55:45;;;;;;;2.38;2.28;;;24.50;99.90;;;;;;5114218;28;20181;-73
2022/06/11 13:58:19;;;;;;;3.50;2.17;;;24.30;99.90;;;;;;5114235;28;20243;-74
2022/06/11 14:00:59;;;;;;;2.65;2.45;;;24.10;99.90;;;;;;5112918;28;20196;-73
2022/06/11 14:03:46;;;;;;;2.42;2.20;;;24.00;99.90;;;;;;5114194;28;20560;-74
2022/06/11 14:06:14;;;;;;;2.70;2.33;;;23.90;99.90;;;;;;5114057;28;20173;-74
2022/06/11 14:09:03;;;;;;;2.75;2.55;;;24.00;99.90;;;;;;5114129;28;20166;-73
2022/06/11 14:11:35;;;;;;;3.80;1.80;;;24.20;99.90;;;;;;5112732;28;20170;-74
2022/06/11 14:14:05;;;;;;;2.50;2.00;;;24.60;99.90;;;;;;5113857;28;20171;-73
2022/06/11 14:16:30;;;;;;;1.75;1.48;;;24.80;99.90;;;;;;5113939;28;20249;-73
2022/06/11 14:18:56;;;;;;;2.58;1.70;;;25.00;99.90;;;;;;5113715;28;20254;-73
2022/06/11 14:21:37;;;;;;;7.68;1.80;;;24.60;99.90;;;;;;5113756;28;20222;-73
2022/06/11 14:24:04;;;;;;;4.45;2.78;;;24.40;99.90;;;;;;5113797;28;20249;-74
2022/06/11 14:26:45;;;;;;;1.67;1.58;;;24.20;99.90;;;;;;5113782;28;20166;-74
2022/06/11 14:29:31;;;;;;;1.30;1.30;;;24.30;99.90;;;;;;5112355;28;20159;-76
2022/06/11 14:32:26;;;;;;;3.00;1.98;;;24.30;99.90;;;;;;5113653;28;20171;-73
2022/06/11 14:35:01;;;;;;;3.75;1.88;;;24.20;99.90;;;;;;5111700;28;20702;-70
2022/06/11 14:37:31;;;;;;;2.05;1.92;;;24.10;99.90;;;;;;5113544;28;20549;-70
2022/06/11 14:40:19;;;;;;;1.60;1.50;;;23.90;99.90;;;;;;5112267;28;20438;-70
2022/06/11 14:42:57;;;;;;;2.10;1.42;;;23.90;99.90;;;;;;5113483;28;20270;-70
2022/06/11 14:45:37;;;;;;;1.38;1.27;;;24.30;99.90;;;;;;5113513;28;20170;-70
2022/06/11 14:48:32;;;;;;;1.77;1.67;;;24.50;99.90;;;;;;5113415;28;20162;-70
2022/06/11 14:51:01;;;;;;;2.10;1.30;;;24.80;99.90;;;;;;5105105;28;20179;-70
2022/06/11 14:53:41;;;;;;;3.33;1.75;;;25.30;99.90;;;;;;5113417;28;20173;-70
2022/06/11 14:56:42;;;;;;;1.70;1.60;;;25.40;99.90;;;;;;5113391;28;20166;-70
2022/06/11 14:59:23;;;;;;;2.13;1.65;;;25.20;99.90;;;;;;5113444;28;20170;-70
2022/06/11 15:02:00;;;;;;;1.52;1.45;;;24.70;99.90;;;;;;5112236;28;20247;-70
2022/06/11 15:04:50;;;;;;;2.25;1.60;;;24.60;99.90;;;;;;5117649;28;20166;-70
2022/06/11 15:07:34;;;;;;;4.22;1.85;;;24.60;99.90;;;;;;5117680;28;20177;-70
2022/06/11 15:10:19;;;;;;;2.42;1.40;;;25.00;99.90;;;;;;5117604;28;20158;-70
2022/06/11 15:13:06;;;;;;;1.42;1.33;;;25.40;99.90;;;;;;5116269;28;20170;-70
2022/06/11 15:15:50;;;;;;;1.52;1.42;;;25.80;99.90;;;;;;5117360;28;20159;-70
2022/06/11 15:18:29;;;;;;;1.30;1.20;;;26.10;99.90;;;;;;5117161;28;20557;-70
2022/06/11 15:20:55;;;;;;;2.20;1.20;;;26.40;99.90;;;;;;5117051;28;20303;-71
2022/06/11 15:23:28;;;;;;;1.05;1.05;;;26.50;99.90;;;;;;5117013;28;20170;-71
2022/06/11 15:25:56;;;;;;;1.40;1.30;;;26.60;99.90;;;;;;5117099;28;20203;-71
2022/06/11 15:28:22;;;;;;;1.10;1.10;;;26.70;99.90;;;;;;5116998;28;20167;-71
2022/06/11 15:30:48;;;;;;;1.65;1.55;;;26.70;99.90;;;;;;5116858;28;20219;-77
2022/06/11 15:33:14;;;;;;;1.83;1.73;;;26.50;99.90;;;;;;5116902;28;20189;-71
2022/06/11 15:36:07;;;;;;;6.22;1.50;;;26.20;99.90;;;;;;5115470;28;20644;-71
2022/06/11 15:38:47;;;;;;;4.18;1.70;;;26.10;99.90;;;;;;5116659;28;20175;-71
2022/06/11 15:41:26;;;;;;;1.27;1.20;;;26.10;99.90;;;;;;5116521;28;20218;-71
2022/06/11 15:44:01;;;;;;;1.10;1.02;;;26.60;99.90;;;;;;5116718;28;20166;-71
2022/06/11 15:46:32;;;;;;;3.33;1.15;;;26.90;99.90;;;;;;5116690;28;20289;-71
2022/06/11 15:48:59;;;;;;;1.88;1.40;;;27.00;99.90;;;;;;5116791;28;20162;-72
2022/06/11 15:51:26;;;;;;;3.80;1.33;;;27.10;99.90;;;;;;5116596;28;20195;-72
2022/06/11 15:56:48;;;;;;;1.92;1.10;;;27.60;99.90;;;;;;5117180;28;20185;-72
2022/06/11 15:59:20;;;;;;;3.35;2.30;;;27.80;99.90;;;;;;5116550;28;20534;-72
2022/06/11 16:01:49;;;;;;;1.63;1.13;;;28.10;99.90;;;;;;5116491;28;20190;-72
2022/06/11 16:04:18;;;;;;;1.60;1.50;;;28.00;99.90;;;;;;5116494;28;20163;-72
2022/06/11 16:07:04;;;;;;;1.45;1.15;;;27.70;99.90;;;;;;5116492;28;20751;-72
2022/06/11 16:09:37;;;;;;;2.20;2.08;;;27.70;99.90;;;;;;5116478;28;20212;-71
2022/06/11 16:12:18;;;;;;;1.63;1.45;;;27.80;99.90;;;;;;5116404;28;20166;-72
2022/06/11 16:14:44;;;;;;;1.75;1.23;;;27.90;99.90;;;;;;5115929;28;20185;-71
2022/06/11 16:17:21;;;;;;;1.63;1.20;;;27.60;99.90;;;;;;5116288;28;20216;-72
2022/06/11 16:19:54;;;;;;;2.25;1.42;;;27.20;99.90;;;;;;5116215;28;20212;-72
2022/06/11 16:22:24;;;;;;;3.95;2.00;;;26.90;99.90;;;;;;5114849;28;20566;-71
2022/06/11 16:25:05;;;;;;;1.35;1.23;;;26.60;99.90;;;;;;5116134;28;20180;-71
2022/06/11 16:27:34;;;;;;;1.30;1.20;;;26.20;99.90;;;;;;5116115;28;20526;-71
2022/06/11 16:30:18;;;;;;;3.75;3.30;;;25.90;99.90;;;;;;5116004;28;20627;-72
2022/06/11 16:32:44;;;;;;;4.03;1.88;;;26.00;99.90;;;;;;5115918;28;20189;-71
2022/06/11 16:35:23;;;;;;;1.30;1.20;;;26.00;99.90;;;;;;5114713;28;20167;-71
2022/06/11 16:37:49;;;;;;;2.33;1.38;;;25.40;99.90;;;;;;5115906;28;20166;-71
2022/06/11 16:40:27;;;;;;;2.22;1.10;;;25.00;99.90;;;;;;5115705;28;20166;-72
2022/06/11 16:43:00;;;;;;;3.15;1.17;;;24.70;99.90;;;;;;5115817;28;20202;-72
2022/06/11 16:45:36;;;;;;;3.97;1.27;;;24.40;99.90;;;;;;5115793;28;20246;-72
2022/06/11 16:48:05;;;;;;;2.05;1.77;;;24.40;99.90;;;;;;5115702;28;20189;-72
2022/06/11 16:56:11;;;;;;;1.83;1.58;;;24.60;99.90;;;;;;5115778;28;20227;-72
2022/06/11 16:58:55;;;;;;;3.33;2.40;;;25.10;99.90;;;;;;5115415;28;20635;-72
2022/06/11 17:01:24;;;;;;;3.08;1.40;;;25.40;99.90;;;;;;5115288;28;20183;-72
2022/06/11 17:03:57;;;;;;;4.10;1.40;;;25.80;99.90;;;;;;5115402;28;20163;-72
2022/06/11 17:06:35;;;;;;;1.48;1.30;;;26.20;99.90;;;;;;5115158;28;20182;-71
2022/06/11 17:09:02;;;;;;;1.05;1.00;;;26.30;99.90;;;;;;5115297;28;20170;-72
2022/06/11 17:11:29;;;;;;;2.08;1.17;;;25.90;99.90;;;;;;5115189;28;20171;-71
2022/06/11 17:13:58;;;;;;;4.18;1.45;;;25.40;99.90;;;;;;5115101;28;20170;-72
2022/06/11 17:16:34;;;;;;;1.30;1.20;;;25.00;99.90;;;;;;5113799;28;20186;-72
2022/06/11 17:19:02;;;;;;;1.40;1.30;;;25.10;99.90;;;;;;5115188;28;20170;-71
2022/06/11 17:21:33;;;;;;;2.15;1.02;;;25.50;99.90;;;;;;5114972;28;20239;-71
2022/06/11 17:24:43;;;;;;;0.80;0.80;;;25.80;99.90;;;;;;5115040;28;20195;-72
2022/06/11 17:27:17;;;;;;;1.50;1.30;;;25.90;99.90;;;;;;5035351;28;20657;-72
2022/06/11 17:29:43;;;;;;;1.48;1.38;;;26.10;99.90;;;;;;5052159;28;20169;-72
2022/06/11 17:32:15;;;;;;;3.20;1.58;;;25.70;99.90;;;;;;5084565;28;20178;-72
2022/06/11 17:34:41;;;;;;;2.65;1.70;;;25.60;99.90;;;;;;5114745;28;20171;-72
2022/06/11 17:37:13;;;;;;;1.02;1.02;;;25.80;99.90;;;;;;5113454;28;20177;-72
2022/06/11 17:39:38;;;;;;;1.63;1.52;;;25.90;99.90;;;;;;5114653;28;20170;-72
2022/06/11 17:42:06;;;;;;;2.00;1.80;;;25.80;99.90;;;;;;5113167;28;20218;-72
2022/06/11 17:44:35;;;;;;;2.83;1.50;;;25.60;99.90;;;;;;5114607;28;20170;-72
2022/06/11 17:47:09;;;;;;;4.10;2.42;;;25.80;99.90;;;;;;5114448;28;20648;-72
2022/06/11 17:49:38;;;;;;;2.03;1.17;;;25.80;99.90;;;;;;5114557;28;20264;-72
2022/06/11 17:52:19;;;;;;;2.42;1.50;;;25.90;99.90;;;;;;5114491;28;20739;-72
2022/06/11 17:54:44;;;;;;;1.27;1.23;;;25.90;99.90;;;;;;5114487;28;20178;-72
2022/06/11 17:57:11;;;;;;;2.10;1.42;;;25.90;99.90;;;;;;5114305;28;20262;-71
2022/06/11 17:59:40;;;;;;;2.20;1.27;;;26.00;99.90;;;;;;5114146;28;20688;-72
2022/06/11 18:02:33;;;;;;;4.18;1.30;;;26.10;99.90;;;;;;5114233;28;20194;-72
2022/06/11 18:05:02;;;;;;;1.52;1.42;;;26.10;99.90;;;;;;5114372;28;20581;-72
2022/06/11 18:07:28;;;;;;;2.92;2.10;;;25.90;99.90;;;;;;5114104;28;20170;-72
2022/06/11 18:09:54;;;;;;;2.75;1.40;;;25.50;99.90;;;;;;5114140;28;20162;-72
2022/06/11 18:12:19;;;;;;;2.92;1.77;;;25.40;99.90;;;;;;5114177;28;20174;-72
2022/06/11 18:14:45;;;;;;;1.48;1.30;;;25.30;99.90;;;;;;5114321;28;20611;-72
2022/06/11 18:17:11;;;;;;;3.20;1.20;;;25.00;99.90;;;;;;5114113;28;20294;-72
2022/06/11 18:19:37;;;;;;;5.85;1.20;;;24.90;99.90;;;;;;5114026;28;20181;-72
2022/06/11 18:27:31;;;;;;;4.63;1.88;;;25.10;99.90;;;;;;5113982;28;20179;-72
2022/06/11 18:29:57;;;;;;;1.60;1.50;;;24.90;99.90;;;;;;5112600;28;20281;-72
2022/06/11 18:32:22;;;;;;;1.63;1.27;;;24.60;99.90;;;;;;5112710;28;20186;-72
2022/06/11 18:34:48;;;;;;;3.05;1.35;;;24.40;99.90;;;;;;5112607;28;20283;-72
2022/06/11 18:37:14;;;;;;;3.35;2.10;;;24.10;99.90;;;;;;5113618;28;20521;-72
2022/06/11 18:39:40;;;;;;;2.03;1.85;;;23.80;99.90;;;;;;5112428;28;20635;-72
2022/06/11 18:42:07;;;;;;;2.17;1.60;;;23.40;99.90;;;;;;5113418;28;20218;-72
2022/06/11 18:44:33;;;;;;;3.22;1.98;;;23.10;99.90;;;;;;5113684;28;20272;-72
2022/06/11 18:46:59;;;;;;;2.00;1.75;;;22.80;99.90;;;;;;5113689;28;20529;-72
2022/06/11 18:49:25;;;;;;;3.33;1.40;;;22.60;99.90;;;;;;5113644;28;20175;-72
2022/06/11 18:51:50;;;;;;;2.33;1.80;;;22.40;99.90;;;;;;5113678;28;20162;-72
2022/06/11 18:54:17;;;;;;;1.98;1.48;;;22.30;99.90;;;;;;5113670;28;20212;-72
2022/06/11 18:56:44;;;;;;;2.00;1.70;;;22.10;99.90;;;;;;5113673;28;20256;-72
2022/06/11 18:59:10;;;;;;;2.15;1.50;;;22.00;99.90;;;;;;5113643;28;20223;-72
2022/06/11 19:01:36;;;;;;;3.17;1.48;;;21.90;99.90;;;;;;5113538;28;20573;-72
2022/06/11 19:04:02;;;;;;;1.83;1.73;;;21.70;99.90;;;;;;5113460;28;20174;-71
2022/06/11 19:06:28;;;;;;;5.75;4.05;;;21.70;99.90;;;;;;5113572;28;20646;-71
